FDX5454 KSFO-KLAX
Flight info
| Callsign | FDX5454 |
|---|---|
| Flight time | 0h 58m |
| Altitude | 33000 |
| Route | WESLA5 SUSEY DCT EBAYE DCT BURGL IRNMN2 |
| Aircraft | B77F/H-D/C |
Departure
| Time | 2026-05-04 03:48 |
|---|---|
| Airport | San Francisco International Airport (KSFO) |
Arrival
| Time | 2026-05-04 04:47 |
|---|---|
| Airport | Los Angeles International Airport (KLAX) |
| Time | Latitude | Longitude | Altitude | Speed | Heading |
|---|---|---|---|---|---|
| 2026-05-04 02:53 | 37.62863 | -122.38224 | 19 ft | 0 kts | 297° |
| 2026-05-04 03:21 | 37.62859 | -122.38215 | 10 ft | 3 kts | 296° |
| 2026-05-04 03:21 | 37.62852 | -122.38192 | 20 ft | 3 kts | 284° |
| 2026-05-04 03:22 | 37.62849 | -122.38169 | 20 ft | 3 kts | 249° |
| 2026-05-04 03:22 | 37.62856 | -122.38155 | 20 ft | 2 kts | 209° |
| 2026-05-04 03:22 | 37.62857 | -122.38154 | 20 ft | 2 kts | 208° |
| 2026-05-04 03:26 | 37.62856 | -122.38155 | 18 ft | 2 kts | 209° |
| 2026-05-04 03:26 | 37.62840 | -122.38166 | 18 ft | 2 kts | 208° |
| 2026-05-04 03:27 | 37.62838 | -122.38167 | 18 ft | 0 kts | 208° |
| 2026-05-04 03:38 | 37.62836 | -122.38169 | 19 ft | 2 kts | 208° |
| 2026-05-04 03:38 | 37.62827 | -122.38175 | 18 ft | 0 kts | 208° |
| 2026-05-04 03:38 | 37.62825 | -122.38176 | 18 ft | 0 kts | 208° |
| 2026-05-04 03:39 | 37.62816 | -122.38182 | 18 ft | 6 kts | 208° |
| 2026-05-04 03:39 | 37.62756 | -122.38222 | 19 ft | 10 kts | 208° |
| 2026-05-04 03:39 | 37.62700 | -122.38259 | 19 ft | 11 kts | 207° |
| 2026-05-04 03:39 | 37.62633 | -122.38304 | 19 ft | 10 kts | 198° |
| 2026-05-04 03:40 | 37.62581 | -122.38266 | 19 ft | 10 kts | 118° |
| 2026-05-04 03:40 | 37.62552 | -122.38199 | 22 ft | 12 kts | 119° |
| 2026-05-04 03:40 | 37.62500 | -122.38078 | 26 ft | 17 kts | 117° |
| 2026-05-04 03:40 | 37.62443 | -122.37942 | 27 ft | 15 kts | 118° |
| 2026-05-04 03:41 | 37.62407 | -122.37856 | 31 ft | 11 kts | 118° |
| 2026-05-04 03:41 | 37.62371 | -122.37772 | 28 ft | 12 kts | 118° |
| 2026-05-04 03:41 | 37.62308 | -122.37620 | 26 ft | 32 kts | 117° |
| 2026-05-04 03:41 | 37.62203 | -122.37369 | 17 ft | 28 kts | 118° |
| 2026-05-04 03:42 | 37.62135 | -122.37209 | 18 ft | 19 kts | 118° |
| 2026-05-04 03:42 | 37.62073 | -122.37062 | 17 ft | 19 kts | 117° |
| 2026-05-04 03:42 | 37.62012 | -122.36914 | 20 ft | 19 kts | 117° |
| 2026-05-04 03:42 | 37.61950 | -122.36767 | 27 ft | 19 kts | 118° |
| 2026-05-04 03:43 | 37.61888 | -122.36619 | 26 ft | 19 kts | 117° |
| 2026-05-04 03:43 | 37.61827 | -122.36472 | 27 ft | 19 kts | 117° |
| 2026-05-04 03:43 | 37.61759 | -122.36312 | 24 ft | 22 kts | 117° |
| 2026-05-04 03:43 | 37.61688 | -122.36141 | 22 ft | 23 kts | 118° |
| 2026-05-04 03:44 | 37.61618 | -122.35975 | 21 ft | 15 kts | 118° |
| 2026-05-04 03:44 | 37.61571 | -122.35866 | 28 ft | 10 kts | 117° |
| 2026-05-04 03:44 | 37.61546 | -122.35804 | 28 ft | 6 kts | 117° |
| 2026-05-04 03:44 | 37.61525 | -122.35754 | 27 ft | 6 kts | 118° |
| 2026-05-04 03:45 | 37.61499 | -122.35707 | 28 ft | 7 kts | 134° |
| 2026-05-04 03:45 | 37.61455 | -122.35685 | 28 ft | 7 kts | 179° |
| 2026-05-04 03:45 | 37.61407 | -122.35706 | 28 ft | 7 kts | 217° |
| 2026-05-04 03:45 | 37.61382 | -122.35755 | 26 ft | 8 kts | 258° |
| 2026-05-04 03:46 | 37.61398 | -122.35829 | 24 ft | 3 kts | 298° |
| 2026-05-04 03:46 | 37.61399 | -122.35830 | 24 ft | 0 kts | 298° |
| 2026-05-04 03:48 | 37.61467 | -122.35994 | 24 ft | 68 kts | 297° |
| 2026-05-04 03:48 | 37.61866 | -122.36958 | 28 ft | 177 kts | 296° |
| 2026-05-04 03:48 | 37.62521 | -122.38498 | 630 ft | 207 kts | 295° |
| 2026-05-04 03:49 | 37.63149 | -122.40032 | 2036 ft | 187 kts | 294° |
| 2026-05-04 03:49 | 37.63749 | -122.41519 | 2703 ft | 200 kts | 295° |
| 2026-05-04 03:49 | 37.64189 | -122.42600 | 2878 ft | 219 kts | 296° |
| 2026-05-04 03:49 | 37.64913 | -122.44356 | 3509 ft | 230 kts | 295° |
| 2026-05-04 03:50 | 37.65668 | -122.46175 | 4251 ft | 237 kts | 296° |
| 2026-05-04 03:50 | 37.66451 | -122.48061 | 4968 ft | 246 kts | 295° |
| 2026-05-04 03:50 | 37.66836 | -122.50938 | 5455 ft | 265 kts | 252° |
| 2026-05-04 03:50 | 37.66336 | -122.52348 | 5925 ft | 268 kts | 232° |
| 2026-05-04 03:51 | 37.64939 | -122.53880 | 6700 ft | 268 kts | 203° |
| 2026-05-04 03:51 | 37.63138 | -122.54376 | 7546 ft | 267 kts | 175° |
| 2026-05-04 03:51 | 37.61324 | -122.53853 | 8316 ft | 271 kts | 159° |
| 2026-05-04 03:51 | 37.59564 | -122.52958 | 9168 ft | 275 kts | 156° |
| 2026-05-04 03:52 | 37.57797 | -122.51998 | 10022 ft | 278 kts | 156° |
| 2026-05-04 03:52 | 37.55990 | -122.51034 | 10635 ft | 291 kts | 157° |
| 2026-05-04 03:52 | 37.54024 | -122.50013 | 10846 ft | 319 kts | 157° |
| 2026-05-04 03:52 | 37.51871 | -122.48917 | 11060 ft | 347 kts | 158° |
| 2026-05-04 03:53 | 37.49602 | -122.47723 | 11561 ft | 359 kts | 153° |
| 2026-05-04 03:53 | 37.47597 | -122.45808 | 12231 ft | 365 kts | 133° |
| 2026-05-04 03:53 | 37.45901 | -122.43384 | 12989 ft | 374 kts | 131° |
| 2026-05-04 03:53 | 37.44150 | -122.40936 | 13983 ft | 378 kts | 132° |
| 2026-05-04 03:54 | 37.42368 | -122.38486 | 14907 ft | 382 kts | 132° |
| 2026-05-04 03:54 | 37.40553 | -122.36005 | 15730 ft | 388 kts | 132° |
| 2026-05-04 03:54 | 37.38713 | -122.33500 | 16641 ft | 390 kts | 132° |
| 2026-05-04 03:54 | 37.36867 | -122.30993 | 17655 ft | 392 kts | 132° |
| 2026-05-04 03:55 | 37.35000 | -122.28459 | 18420 ft | 399 kts | 133° |
| 2026-05-04 03:55 | 37.33099 | -122.25882 | 19143 ft | 405 kts | 133° |
| 2026-05-04 03:55 | 37.31174 | -122.23275 | 19876 ft | 409 kts | 133° |
| 2026-05-04 03:55 | 37.29232 | -122.20646 | 20668 ft | 412 kts | 132° |
| 2026-05-04 03:56 | 37.27263 | -122.17983 | 21309 ft | 420 kts | 133° |
| 2026-05-04 03:56 | 37.25260 | -122.15277 | 21948 ft | 426 kts | 133° |
| 2026-05-04 03:56 | 37.23234 | -122.12543 | 22712 ft | 429 kts | 133° |
| 2026-05-04 03:56 | 37.21193 | -122.09790 | 23510 ft | 432 kts | 133° |
| 2026-05-04 03:57 | 37.19134 | -122.07016 | 24113 ft | 436 kts | 133° |
| 2026-05-04 03:57 | 37.17055 | -122.04218 | 24727 ft | 440 kts | 133° |
| 2026-05-04 03:57 | 37.14959 | -122.01397 | 25260 ft | 445 kts | 133° |
| 2026-05-04 03:57 | 37.12855 | -121.98569 | 25753 ft | 452 kts | 134° |
| 2026-05-04 03:58 | 37.08499 | -121.92725 | 26722 ft | 464 kts | 134° |
| 2026-05-04 03:58 | 37.06285 | -121.89758 | 27272 ft | 468 kts | 135° |
| 2026-05-04 03:58 | 37.04048 | -121.86762 | 27804 ft | 473 kts | 135° |
| 2026-05-04 03:59 | 37.01792 | -121.83743 | 28305 ft | 478 kts | 135° |
| 2026-05-04 03:59 | 36.99514 | -121.80698 | 28763 ft | 483 kts | 136° |
| 2026-05-04 03:59 | 36.97193 | -121.77600 | 29065 ft | 491 kts | 137° |
| 2026-05-04 03:59 | 36.94853 | -121.74480 | 29583 ft | 493 kts | 137° |
| 2026-05-04 04:00 | 36.92507 | -121.71352 | 30222 ft | 493 kts | 137° |
| 2026-05-04 04:00 | 36.90167 | -121.68234 | 30768 ft | 492 kts | 138° |
| 2026-05-04 04:00 | 36.87819 | -121.65109 | 31290 ft | 492 kts | 139° |
| 2026-05-04 04:00 | 36.85472 | -121.61987 | 31768 ft | 494 kts | 139° |
| 2026-05-04 04:01 | 36.83141 | -121.58893 | 32080 ft | 499 kts | 141° |
| 2026-05-04 04:01 | 36.80743 | -121.55719 | 32357 ft | 504 kts | 141° |
| 2026-05-04 04:01 | 36.78339 | -121.52534 | 32878 ft | 503 kts | 141° |
| 2026-05-04 04:01 | 36.75928 | -121.49341 | 33048 ft | 507 kts | 142° |
| 2026-05-04 04:02 | 36.71119 | -121.42975 | 33059 ft | 501 kts | 142° |
| 2026-05-04 04:02 | 36.66337 | -121.36662 | 33038 ft | 502 kts | 143° |
| 2026-05-04 04:03 | 36.61631 | -121.30448 | 33032 ft | 485 kts | 143° |
| 2026-05-04 04:03 | 36.57115 | -121.24499 | 33004 ft | 462 kts | 144° |
| 2026-05-04 04:04 | 36.52763 | -121.18792 | 32985 ft | 454 kts | 146° |
| 2026-05-04 04:04 | 36.48398 | -121.13099 | 33016 ft | 451 kts | 146° |
| 2026-05-04 04:05 | 36.44119 | -121.07494 | 32989 ft | 443 kts | 147° |
| 2026-05-04 04:05 | 36.39953 | -121.01822 | 33003 ft | 445 kts | 143° |
| 2026-05-04 04:06 | 36.35954 | -120.95982 | 32983 ft | 441 kts | 143° |
| 2026-05-04 04:06 | 36.32030 | -120.90259 | 32991 ft | 437 kts | 143° |
| 2026-05-04 04:07 | 36.28057 | -120.84544 | 33000 ft | 438 kts | 144° |
| 2026-05-04 04:07 | 36.24065 | -120.78838 | 32995 ft | 438 kts | 144° |
| 2026-05-04 04:08 | 36.20077 | -120.73138 | 32995 ft | 438 kts | 144° |
| 2026-05-04 04:08 | 36.16087 | -120.67447 | 33004 ft | 436 kts | 144° |
| 2026-05-04 04:09 | 36.12113 | -120.61786 | 32994 ft | 435 kts | 144° |
| 2026-05-04 04:09 | 36.08171 | -120.56184 | 32958 ft | 433 kts | 144° |
| 2026-05-04 04:10 | 36.04211 | -120.50562 | 33010 ft | 436 kts | 145° |
| 2026-05-04 04:10 | 36.00196 | -120.44888 | 33012 ft | 441 kts | 144° |
| 2026-05-04 04:11 | 35.96139 | -120.39146 | 32996 ft | 446 kts | 144° |
| 2026-05-04 04:11 | 35.92044 | -120.33355 | 32985 ft | 448 kts | 144° |
| 2026-05-04 04:12 | 35.87885 | -120.27698 | 32980 ft | 436 kts | 151° |
| 2026-05-04 04:12 | 35.85617 | -120.25297 | 32991 ft | 424 kts | 156° |
| 2026-05-04 04:12 | 35.83243 | -120.23239 | 32981 ft | 410 kts | 163° |
| 2026-05-04 04:13 | 35.78421 | -120.19650 | 32997 ft | 405 kts | 163° |
| 2026-05-04 04:13 | 35.73618 | -120.16060 | 32977 ft | 403 kts | 163° |
| 2026-05-04 04:14 | 35.68826 | -120.12453 | 33009 ft | 404 kts | 163° |
| 2026-05-04 04:14 | 35.64027 | -120.08838 | 33013 ft | 405 kts | 163° |
| 2026-05-04 04:15 | 35.59204 | -120.05201 | 32986 ft | 408 kts | 163° |
| 2026-05-04 04:15 | 35.54342 | -120.01536 | 32993 ft | 410 kts | 164° |
| 2026-05-04 04:16 | 35.49450 | -119.97857 | 33006 ft | 415 kts | 164° |
| 2026-05-04 04:16 | 35.44534 | -119.94163 | 32991 ft | 420 kts | 163° |
| 2026-05-04 04:17 | 35.39492 | -119.90380 | 32970 ft | 428 kts | 164° |
| 2026-05-04 04:17 | 35.34404 | -119.86558 | 32995 ft | 429 kts | 164° |
| 2026-05-04 04:18 | 35.29299 | -119.82738 | 33002 ft | 431 kts | 164° |
| 2026-05-04 04:18 | 35.26758 | -119.80687 | 32981 ft | 447 kts | 159° |
| 2026-05-04 04:18 | 35.24224 | -119.78375 | 32991 ft | 458 kts | 156° |
| 2026-05-04 04:19 | 35.19336 | -119.73604 | 32918 ft | 439 kts | 158° |
| 2026-05-04 04:19 | 35.16947 | -119.71292 | 32650 ft | 438 kts | 158° |
| 2026-05-04 04:19 | 35.14530 | -119.69006 | 32249 ft | 438 kts | 158° |
| 2026-05-04 04:20 | 35.12106 | -119.66742 | 31787 ft | 438 kts | 157° |
| 2026-05-04 04:20 | 35.09682 | -119.64486 | 31334 ft | 437 kts | 156° |
| 2026-05-04 04:20 | 35.07272 | -119.62246 | 30879 ft | 435 kts | 156° |
| 2026-05-04 04:20 | 35.04870 | -119.60015 | 30381 ft | 435 kts | 155° |
| 2026-05-04 04:21 | 35.02458 | -119.57777 | 29781 ft | 435 kts | 154° |
| 2026-05-04 04:21 | 35.00073 | -119.55555 | 29125 ft | 425 kts | 154° |
| 2026-05-04 04:21 | 34.97786 | -119.53423 | 28498 ft | 414 kts | 154° |
| 2026-05-04 04:21 | 34.95524 | -119.51320 | 27887 ft | 404 kts | 154° |
| 2026-05-04 04:22 | 34.93309 | -119.49267 | 27278 ft | 395 kts | 155° |
| 2026-05-04 04:22 | 34.91141 | -119.47263 | 26699 ft | 386 kts | 155° |
| 2026-05-04 04:22 | 34.89012 | -119.45335 | 26193 ft | 376 kts | 156° |
| 2026-05-04 04:22 | 34.86916 | -119.43465 | 25728 ft | 373 kts | 156° |
| 2026-05-04 04:23 | 34.84794 | -119.41591 | 25312 ft | 381 kts | 156° |
| 2026-05-04 04:23 | 34.82632 | -119.39676 | 24874 ft | 386 kts | 156° |
| 2026-05-04 04:23 | 34.80461 | -119.37737 | 24454 ft | 387 kts | 155° |
| 2026-05-04 04:23 | 34.78322 | -119.35821 | 24024 ft | 386 kts | 155° |
| 2026-05-04 04:24 | 34.76158 | -119.33885 | 23635 ft | 386 kts | 155° |
| 2026-05-04 04:24 | 34.74018 | -119.31975 | 23478 ft | 376 kts | 156° |
| 2026-05-04 04:24 | 34.71956 | -119.30163 | 23268 ft | 368 kts | 156° |
| 2026-05-04 04:24 | 34.69869 | -119.28351 | 22866 ft | 368 kts | 156° |
| 2026-05-04 04:25 | 34.67782 | -119.26538 | 22392 ft | 370 kts | 155° |
| 2026-05-04 04:25 | 34.65692 | -119.24718 | 21888 ft | 371 kts | 154° |
| 2026-05-04 04:25 | 34.63554 | -119.22868 | 21458 ft | 384 kts | 154° |
| 2026-05-04 04:25 | 34.61330 | -119.20958 | 20924 ft | 396 kts | 153° |
| 2026-05-04 04:26 | 34.59085 | -119.19021 | 20413 ft | 397 kts | 152° |
| 2026-05-04 04:26 | 34.56834 | -119.17078 | 19884 ft | 397 kts | 152° |
| 2026-05-04 04:26 | 34.54593 | -119.15121 | 19358 ft | 397 kts | 150° |
| 2026-05-04 04:26 | 34.52362 | -119.13138 | 18870 ft | 396 kts | 149° |
| 2026-05-04 04:27 | 34.50144 | -119.11164 | 18367 ft | 395 kts | 149° |
| 2026-05-04 04:27 | 34.47934 | -119.09200 | 17818 ft | 394 kts | 149° |
| 2026-05-04 04:27 | 34.45741 | -119.07257 | 17247 ft | 382 kts | 149° |
| 2026-05-04 04:27 | 34.43670 | -119.05420 | 16977 ft | 357 kts | 150° |
| 2026-05-04 04:28 | 34.41690 | -119.03697 | 16502 ft | 343 kts | 150° |
| 2026-05-04 04:28 | 34.39779 | -119.02050 | 15972 ft | 332 kts | 150° |
| 2026-05-04 04:28 | 34.37910 | -119.00441 | 15482 ft | 326 kts | 150° |
| 2026-05-04 04:28 | 34.36089 | -118.98867 | 14985 ft | 316 kts | 149° |
| 2026-05-04 04:29 | 34.34328 | -118.97343 | 14496 ft | 307 kts | 149° |
| 2026-05-04 04:29 | 34.32648 | -118.95841 | 14034 ft | 301 kts | 148° |
| 2026-05-04 04:29 | 34.30991 | -118.94331 | 13513 ft | 299 kts | 148° |
| 2026-05-04 04:29 | 34.29314 | -118.92805 | 13034 ft | 304 kts | 147° |
| 2026-05-04 04:30 | 34.27609 | -118.91259 | 12535 ft | 308 kts | 147° |
| 2026-05-04 04:30 | 34.25895 | -118.89704 | 12127 ft | 305 kts | 147° |
| 2026-05-04 04:30 | 34.24229 | -118.88178 | 11991 ft | 296 kts | 147° |
| 2026-05-04 04:30 | 34.22581 | -118.86662 | 11994 ft | 299 kts | 147° |
| 2026-05-04 04:31 | 34.20925 | -118.85139 | 11993 ft | 298 kts | 147° |
| 2026-05-04 04:31 | 34.19274 | -118.83622 | 11978 ft | 297 kts | 147° |
| 2026-05-04 04:31 | 34.17635 | -118.82119 | 11966 ft | 296 kts | 147° |
| 2026-05-04 04:31 | 34.15990 | -118.80583 | 11708 ft | 302 kts | 144° |
| 2026-05-04 04:32 | 34.14419 | -118.78922 | 11243 ft | 308 kts | 141° |
| 2026-05-04 04:32 | 34.12864 | -118.77193 | 10739 ft | 300 kts | 141° |
| 2026-05-04 04:32 | 34.11354 | -118.75511 | 10253 ft | 291 kts | 141° |
| 2026-05-04 04:32 | 34.09879 | -118.73885 | 9751 ft | 283 kts | 141° |
| 2026-05-04 04:33 | 34.08437 | -118.72309 | 9230 ft | 277 kts | 141° |
| 2026-05-04 04:33 | 34.06980 | -118.70728 | 9039 ft | 286 kts | 141° |
| 2026-05-04 04:33 | 34.05515 | -118.69138 | 8984 ft | 280 kts | 141° |
| 2026-05-04 04:33 | 34.04093 | -118.67588 | 8860 ft | 275 kts | 140° |
| 2026-05-04 04:34 | 34.02958 | -118.65704 | 8403 ft | 284 kts | 111° |
| 2026-05-04 04:34 | 34.02634 | -118.63359 | 8064 ft | 284 kts | 96° |
| 2026-05-04 04:34 | 34.02451 | -118.60994 | 8004 ft | 282 kts | 98° |
| 2026-05-04 04:34 | 34.02235 | -118.58652 | 7991 ft | 281 kts | 98° |
| 2026-05-04 04:35 | 34.02014 | -118.56308 | 7999 ft | 282 kts | 98° |
| 2026-05-04 04:35 | 34.01867 | -118.54749 | 7991 ft | 283 kts | 98° |
| 2026-05-04 04:35 | 34.01572 | -118.51606 | 7566 ft | 286 kts | 98° |
| 2026-05-04 04:35 | 34.01349 | -118.49232 | 7146 ft | 281 kts | 98° |
| 2026-05-04 04:36 | 34.01135 | -118.46956 | 6721 ft | 272 kts | 97° |
| 2026-05-04 04:36 | 34.01092 | -118.44739 | 6254 ft | 263 kts | 80° |
| 2026-05-04 04:36 | 34.01359 | -118.43330 | 6108 ft | 251 kts | 75° |
| 2026-05-04 04:36 | 34.01755 | -118.41346 | 6061 ft | 239 kts | 78° |
| 2026-05-04 04:37 | 34.02774 | -118.35457 | 5622 ft | 233 kts | 82° |
| 2026-05-04 04:37 | 34.02985 | -118.33578 | 5195 ft | 229 kts | 84° |
| 2026-05-04 04:38 | 34.03170 | -118.31663 | 4766 ft | 224 kts | 84° |
| 2026-05-04 04:38 | 34.03348 | -118.29825 | 4323 ft | 218 kts | 85° |
| 2026-05-04 04:38 | 34.03520 | -118.28019 | 3882 ft | 216 kts | 84° |
| 2026-05-04 04:38 | 34.03694 | -118.26229 | 3622 ft | 215 kts | 84° |
| 2026-05-04 04:39 | 34.03873 | -118.24405 | 3629 ft | 221 kts | 84° |
| 2026-05-04 04:39 | 34.04049 | -118.22551 | 3611 ft | 224 kts | 84° |
| 2026-05-04 04:39 | 34.04226 | -118.20689 | 3601 ft | 224 kts | 84° |
| 2026-05-04 04:39 | 34.04403 | -118.18828 | 3594 ft | 227 kts | 85° |
| 2026-05-04 04:40 | 34.04304 | -118.16951 | 3576 ft | 224 kts | 114° |
| 2026-05-04 04:40 | 34.03285 | -118.15613 | 3590 ft | 218 kts | 155° |
| 2026-05-04 04:40 | 34.01826 | -118.15230 | 3603 ft | 216 kts | 180° |
| 2026-05-04 04:40 | 34.00323 | -118.15374 | 3599 ft | 218 kts | 189° |
| 2026-05-04 04:41 | 33.98811 | -118.15645 | 3593 ft | 220 kts | 190° |
| 2026-05-04 04:41 | 33.97357 | -118.16002 | 3583 ft | 202 kts | 203° |
| 2026-05-04 04:41 | 33.96348 | -118.16959 | 3587 ft | 175 kts | 229° |
| 2026-05-04 04:41 | 33.95595 | -118.18083 | 3587 ft | 169 kts | 244° |
| 2026-05-04 04:42 | 33.95462 | -118.19497 | 3639 ft | 175 kts | 269° |
| 2026-05-04 04:42 | 33.95401 | -118.20974 | 3623 ft | 177 kts | 264° |
| 2026-05-04 04:42 | 33.95284 | -118.22444 | 3345 ft | 178 kts | 263° |
| 2026-05-04 04:42 | 33.95160 | -118.23861 | 2939 ft | 163 kts | 263° |
| 2026-05-04 04:43 | 33.95038 | -118.25175 | 2487 ft | 152 kts | 263° |
| 2026-05-04 04:43 | 33.94919 | -118.26410 | 1984 ft | 149 kts | 263° |
| 2026-05-04 04:43 | 33.94804 | -118.27632 | 1610 ft | 147 kts | 263° |
| 2026-05-04 04:43 | 33.94684 | -118.28863 | 1464 ft | 149 kts | 263° |
| 2026-05-04 04:44 | 33.94562 | -118.30101 | 1339 ft | 146 kts | 263° |
| 2026-05-04 04:44 | 33.94440 | -118.31320 | 1246 ft | 148 kts | 262° |
| 2026-05-04 04:44 | 33.94316 | -118.32541 | 1079 ft | 146 kts | 264° |
| 2026-05-04 04:44 | 33.94200 | -118.33759 | 824 ft | 146 kts | 263° |
| 2026-05-04 04:45 | 33.94071 | -118.34973 | 702 ft | 149 kts | 263° |
| 2026-05-04 04:45 | 33.93939 | -118.36237 | 430 ft | 150 kts | 264° |
| 2026-05-04 04:45 | 33.93818 | -118.37470 | 272 ft | 146 kts | 263° |
| 2026-05-04 04:47 | 33.93376 | -118.40598 | 126 ft | 12 kts | 83° |
| 2026-05-04 04:47 | 33.93385 | -118.40498 | 127 ft | 12 kts | 83° |
| 2026-05-04 04:47 | 33.93395 | -118.40399 | 128 ft | 12 kts | 83° |
| 2026-05-04 04:47 | 33.93405 | -118.40299 | 129 ft | 12 kts | 81° |
| 2026-05-04 04:48 | 33.93417 | -118.40200 | 130 ft | 12 kts | 82° |
| 2026-05-04 04:49 | 33.93466 | -118.39719 | 126 ft | 23 kts | 83° |
| 2026-05-04 04:49 | 33.93487 | -118.39508 | 130 ft | 28 kts | 83° |
| 2026-05-04 04:49 | 33.93511 | -118.39274 | 127 ft | 28 kts | 83° |
| 2026-05-04 04:49 | 33.93534 | -118.39040 | 126 ft | 28 kts | 82° |
| 2026-05-04 04:50 | 33.93489 | -118.38861 | 125 ft | 18 kts | 160° |
| 2026-05-04 04:50 | 33.93413 | -118.38848 | 127 ft | 1 kts | 172° |
| 2026-05-04 04:50 | 33.93412 | -118.38848 | 127 ft | 0 kts | 172° |